createdAt,value
2023-03-13T00:03:20.813Z,97075.28
2023-03-13T00:08:22.612Z,97082.22
2023-03-13T00:13:24.451Z,97081.72
2023-03-13T00:18:26.252Z,97081.72
2023-03-13T00:23:29.078Z,97072.88
2023-03-13T00:28:32.891Z,97066.59
2023-03-13T00:33:36.086Z,97061.59
2023-03-13T00:38:39.158Z,97058.47
2023-03-13T00:43:43.234Z,97051.38
2023-03-13T00:48:46.719Z,97049.59
2023-03-13T00:53:48.997Z,97057.50
2023-03-13T00:58:51.242Z,97048.00
2023-03-13T01:03:55.452Z,97041.03
2023-03-13T01:08:58.627Z,97032.91
2023-03-13T01:14:05.271Z,97037.75
2023-03-13T01:19:13.258Z,97046.31
2023-03-13T01:24:15.435Z,97031.25
2023-03-13T01:29:18.615Z,97041.59
2023-03-13T01:34:22.804Z,97035.97
2023-03-13T01:39:24.587Z,97034.88
2023-03-13T01:44:27.361Z,97024.84
2023-03-13T01:49:33.702Z,97004.53
2023-03-13T01:55:11.976Z,96996.31
2023-03-13T02:00:20.073Z,97002.63
2023-03-13T02:05:25.550Z,96998.94
2023-03-13T02:10:31.520Z,97003.97
2023-03-13T02:15:34.777Z,96995.03
2023-03-13T02:20:39.402Z,96986.78
2023-03-13T02:25:46.435Z,96984.50
2023-03-13T02:30:54.499Z,96972.06
2023-03-13T02:35:57.124Z,96963.97
2023-03-13T02:41:01.853Z,96960.03
2023-03-13T02:46:17.527Z,96960.66
2023-03-13T02:51:42.398Z,96949.50
2023-03-13T02:56:49.222Z,96939.44
2023-03-13T03:01:54.253Z,96931.97
2023-03-13T03:06:57.345Z,96926.16
2023-03-13T03:11:59.783Z,96921.25
2023-03-13T03:17:03.969Z,96916.31
2023-03-13T03:22:05.859Z,96906.34
2023-03-13T03:27:08.602Z,96902.28
2023-03-13T03:32:21.206Z,96896.75
2023-03-13T03:37:23.167Z,96884.91
2023-03-13T03:42:25.184Z,96869.84
2023-03-13T03:47:27.295Z,96850.09
2023-03-13T03:52:29.269Z,96848.03
2023-03-13T03:57:31.181Z,96843.72
2023-03-13T04:02:33.622Z,96838.94
2023-03-13T04:07:35.540Z,96828.00
2023-03-13T04:12:37.670Z,96814.28
2023-03-13T04:17:39.953Z,96819.84
2023-03-13T04:22:43.784Z,96805.38
2023-03-13T04:27:46.875Z,96791.88
2023-03-13T04:32:51.124Z,96778.53
2023-03-13T04:38:16.590Z,96766.53
2023-03-13T04:43:56.800Z,96765.06
2023-03-13T04:49:21.809Z,96750.91
2023-03-13T04:54:46.478Z,96735.69
2023-03-13T05:00:10.321Z,96724.22
2023-03-13T05:05:35.948Z,96711.59
2023-03-13T05:11:06.985Z,96686.25
2023-03-13T05:16:35.098Z,96679.19
2023-03-13T05:21:55.137Z,96673.78
2023-03-13T05:27:11.558Z,96678.84
2023-03-13T05:32:27.546Z,96665.53
2023-03-13T05:37:29.385Z,96674.31
2023-03-13T05:42:46.186Z,96663.81
2023-03-13T05:48:20.213Z,96655.66
2023-03-13T05:53:57.325Z,96630.41
2023-03-13T05:59:19.527Z,96634.22
2023-03-13T06:04:35.654Z,96632.09
2023-03-13T06:09:37.803Z,96628.94
2023-03-13T06:14:39.820Z,96609.44
2023-03-13T06:19:58.547Z,96614.47
2023-03-13T06:25:00.344Z,96602.84
2023-03-13T06:30:02.261Z,96587.56
2023-03-13T06:35:04.864Z,96581.94
2023-03-13T06:40:07.194Z,96555.94
2023-03-13T06:45:10.927Z,96552.41
2023-03-13T06:50:12.914Z,96539.03
2023-03-13T06:55:14.970Z,96529.50
2023-03-13T07:00:17.137Z,96523.22
2023-03-13T07:05:18.975Z,96511.28
2023-03-13T07:10:20.803Z,96499.56
2023-03-13T07:15:22.767Z,96508.00
2023-03-13T07:20:24.618Z,96518.63
2023-03-13T07:25:26.459Z,96511.22
2023-03-13T07:30:28.819Z,96494.66
2023-03-13T07:35:30.788Z,96482.69
2023-03-13T07:40:32.610Z,96478.69
2023-03-13T07:45:34.422Z,96508.25
2023-03-13T07:50:36.313Z,96514.63
2023-03-13T07:55:38.179Z,96516.44
2023-03-13T08:00:40.047Z,96532.56
2023-03-13T08:05:42.072Z,96548.53
2023-03-13T08:10:45.184Z,96536.13
2023-03-13T08:15:47.035Z,96564.09
2023-03-13T08:20:48.790Z,96536.06
2023-03-13T08:25:50.618Z,96532.25
2023-03-13T08:30:54.905Z,96528.25
2023-03-13T08:35:58.954Z,96514.47
2023-03-13T08:41:00.788Z,96522.28
2023-03-13T08:46:02.726Z,96516.50
2023-03-13T08:51:06.354Z,96516.09
2023-03-13T08:56:14.369Z,96511.88
2023-03-13T09:01:16.302Z,96512.06
2023-03-13T09:06:18.187Z,96497.84
2023-03-13T09:11:21.342Z,96506.59
2023-03-13T09:16:25.208Z,96497.16
2023-03-13T09:21:33.176Z,96482.34
2023-03-13T09:26:34.994Z,96468.25
2023-03-13T09:31:38.347Z,96464.53
2023-03-13T09:36:40.270Z,96464.38
2023-03-13T09:42:02.570Z,96476.72
2023-03-13T09:47:13.290Z,96459.00
2023-03-13T09:52:18.889Z,96483.53
2023-03-13T09:57:25.124Z,96476.88
2023-03-13T10:02:33.784Z,96459.16
2023-03-13T10:07:36.619Z,96441.94
2023-03-13T10:12:47.186Z,96451.66
2023-03-13T10:17:49.410Z,96448.31
2023-03-13T10:23:16.389Z,96463.25
2023-03-13T10:28:22.928Z,96439.06
2023-03-13T10:33:27.925Z,96451.28
2023-03-13T10:38:46.337Z,96452.72
2023-03-13T10:43:59.572Z,96429.06
2023-03-13T10:49:05.213Z,96421.16
2023-03-13T10:54:30.253Z,96431.03
2023-03-13T10:59:32.083Z,96438.75
2023-03-13T11:04:37.840Z,96440.06
2023-03-13T11:09:39.625Z,96464.94
2023-03-13T11:14:42.857Z,96468.81
2023-03-13T11:20:01.168Z,96461.28
2023-03-13T11:25:18.352Z,96450.28
2023-03-13T11:30:23.160Z,96468.81
2023-03-13T11:35:50.690Z,96464.41
2023-03-13T11:41:05.350Z,96446.78
2023-03-13T11:46:16.689Z,96459.34
2023-03-13T11:51:24.417Z,96431.84
2023-03-13T11:56:50.106Z,96409.16
2023-03-13T12:01:57.608Z,96404.47
2023-03-13T12:07:04.585Z,96406.13
2023-03-13T12:12:38.736Z,96398.72
2023-03-13T12:17:47.090Z,96414.97
2023-03-13T12:23:17.116Z,96402.84
2023-03-13T12:28:18.741Z,96399.09
2023-03-13T12:33:34.872Z,96394.41
2023-03-13T12:39:00.195Z,96387.47
2023-03-13T12:44:08.761Z,96384.81
2023-03-13T12:49:19.834Z,96398.63
2023-03-13T12:55:00.220Z,96376.38
2023-03-13T13:00:06.732Z,96364.97
2023-03-13T13:05:19.589Z,96360.69
2023-03-13T13:10:26.229Z,96356.69
2023-03-13T13:15:29.456Z,96350.47
2023-03-13T13:20:41.181Z,96361.94
2023-03-13T13:25:42.846Z,96349.34
2023-03-13T13:30:44.710Z,96337.22
2023-03-13T13:35:48.001Z,96357.28
2023-03-13T13:41:00.817Z,96360.88
2023-03-13T13:46:22.045Z,96366.19
2023-03-13T13:51:25.142Z,96352.59
2023-03-13T13:57:07.912Z,96351.88
2023-03-13T14:02:10.580Z,96326.66
2023-03-13T14:07:18.637Z,96309.81
2023-03-13T14:12:38.219Z,96296.31
2023-03-13T14:17:44.663Z,96290.84
2023-03-13T14:22:48.355Z,96302.44
2023-03-13T14:27:53.005Z,96300.13
2023-03-13T14:32:54.762Z,96288.00
2023-03-13T14:38:03.696Z,96293.06
2023-03-13T14:43:20.132Z,96279.84
2023-03-13T14:48:27.080Z,96286.25
2023-03-13T14:53:28.910Z,96270.28
2023-03-13T14:58:30.834Z,96255.63
2023-03-13T15:03:33.594Z,96239.06
2023-03-13T15:08:37.796Z,96235.28
2023-03-13T15:13:39.518Z,96228.16
2023-03-13T15:18:41.206Z,96222.19
2023-03-13T15:23:52.868Z,96200.00
2023-03-13T15:28:55.456Z,96207.25
2023-03-13T15:33:59.748Z,96200.66
2023-03-13T15:39:01.888Z,96183.84
2023-03-13T15:44:04.661Z,96169.31
2023-03-13T15:49:11.273Z,96143.00
2023-03-13T15:54:12.916Z,96141.50
2023-03-13T15:59:16.266Z,96129.59
2023-03-13T16:04:17.908Z,96128.63
2023-03-13T16:09:19.559Z,96105.72
2023-03-13T16:14:21.144Z,96094.00
2023-03-13T16:19:22.755Z,96088.44
2023-03-13T16:24:24.413Z,96079.94
2023-03-13T16:29:26.015Z,96073.22
2023-03-13T16:34:27.639Z,96069.88
2023-03-13T16:39:29.244Z,96062.13
2023-03-13T16:44:30.876Z,96060.66
2023-03-13T16:49:32.482Z,96062.28
2023-03-13T16:54:34.094Z,96064.88
2023-03-13T16:59:35.735Z,96059.53
2023-03-13T17:04:37.320Z,96069.38
2023-03-13T17:09:38.921Z,96055.00
2023-03-13T17:14:40.594Z,96047.44
2023-03-13T17:19:42.421Z,96039.38
2023-03-13T17:24:44.151Z,96030.59
2023-03-13T17:29:45.743Z,96026.97
2023-03-13T17:34:47.417Z,96022.34
2023-03-13T17:39:51.350Z,96018.53
2023-03-13T17:44:52.986Z,96027.34
2023-03-13T17:49:54.610Z,96025.25
2023-03-13T17:54:56.210Z,96018.00
2023-03-13T17:59:57.905Z,95995.38
2023-03-13T18:05:00.896Z,95993.88
2023-03-13T18:10:02.656Z,95984.53
2023-03-13T18:15:04.567Z,95981.59
2023-03-13T18:20:14.427Z,95970.59
2023-03-13T18:25:16.096Z,95958.91
2023-03-13T18:30:21.064Z,95980.81
2023-03-13T18:35:22.798Z,95975.59
2023-03-13T18:40:27.686Z,96002.09
2023-03-13T18:45:29.404Z,96037.34
2023-03-13T18:50:32.497Z,96210.34
2023-03-13T18:55:34.223Z,96175.41
2023-03-13T19:00:35.962Z,96167.88
2023-03-13T19:05:37.693Z,96176.44
2023-03-13T19:10:40.261Z,96171.81
2023-03-13T19:15:41.928Z,96145.47
2023-03-13T19:20:43.823Z,96141.94
2023-03-13T19:25:45.450Z,96127.19
2023-03-13T19:30:47.633Z,96121.16
2023-03-13T19:35:49.273Z,96127.69
2023-03-13T19:40:51.276Z,96093.34
2023-03-13T19:45:52.990Z,96078.13
2023-03-13T19:50:54.610Z,96047.63
2023-03-13T19:55:56.409Z,96043.59
2023-03-13T20:01:00.686Z,96022.84
2023-03-13T20:06:22.500Z,96009.09
2023-03-13T20:11:25.409Z,95992.44
2023-03-13T20:16:30.085Z,95981.19
2023-03-13T20:21:36.902Z,95963.66
2023-03-13T20:26:38.698Z,95961.69
2023-03-13T20:31:40.382Z,95967.19
2023-03-13T20:36:42.083Z,95967.56
2023-03-13T20:41:43.772Z,95963.38
2023-03-13T20:46:45.503Z,95956.38
2023-03-13T20:51:47.438Z,95945.13
2023-03-13T20:56:49.063Z,95932.78
2023-03-13T21:01:50.743Z,95942.53
2023-03-13T21:06:52.416Z,95941.09
2023-03-13T21:11:54.016Z,95930.88
2023-03-13T21:16:55.739Z,95938.28
2023-03-13T21:21:57.388Z,95933.00
2023-03-13T21:26:59.806Z,95927.19
2023-03-13T21:32:01.582Z,95922.56
2023-03-13T21:37:03.217Z,95925.03
2023-03-13T21:42:04.878Z,95928.34
2023-03-13T21:47:07.089Z,95951.78
2023-03-13T21:52:08.686Z,95956.09
2023-03-13T21:57:10.387Z,95958.84
2023-03-13T22:02:13.276Z,95980.13
2023-03-13T22:07:14.999Z,95981.69
2023-03-13T22:12:18.262Z,95995.44
2023-03-13T22:17:20.541Z,96004.59
2023-03-13T22:22:23.125Z,96016.00
2023-03-13T22:27:25.449Z,95991.25
2023-03-13T22:32:27.237Z,95987.06
2023-03-13T22:37:28.865Z,95977.13
2023-03-13T22:42:30.491Z,95963.25
2023-03-13T22:47:32.651Z,95957.69
2023-03-13T22:52:34.342Z,95937.50
2023-03-13T22:57:35.958Z,95903.81
2023-03-13T23:02:37.808Z,95886.88
2023-03-13T23:07:40.882Z,95854.91
2023-03-13T23:12:42.500Z,95764.97
2023-03-13T23:17:44.093Z,95774.13
2023-03-13T23:22:47.659Z,95650.25
2023-03-13T23:27:49.518Z,95634.78
2023-03-13T23:32:51.217Z,95683.78
2023-03-13T23:37:55.603Z,95696.31
2023-03-13T23:42:57.194Z,95674.41
2023-03-13T23:47:58.793Z,95677.13
2023-03-13T23:53:00.440Z,95686.06
2023-03-13T23:58:02.024Z,95685.25
